createdAt,value
2023-05-18T00:00:02.921Z,95087.00
2023-05-18T00:02:29.906Z,95083.22
2023-05-18T00:04:57.131Z,95075.03
2023-05-18T00:07:24.092Z,95073.16
2023-05-18T00:09:51.173Z,95074.47
2023-05-18T00:12:18.109Z,95070.78
2023-05-18T00:14:45.004Z,95082.03
2023-05-18T00:17:11.844Z,95067.38
2023-05-18T00:19:38.686Z,95066.78
2023-05-18T00:22:08.065Z,95069.69
2023-05-18T00:24:36.932Z,95065.09
2023-05-18T00:27:04.128Z,95054.94
2023-05-18T00:29:30.983Z,95054.22
2023-05-18T00:31:57.920Z,95061.91
2023-05-18T00:34:24.801Z,95058.56
2023-05-18T00:36:51.689Z,95051.81
2023-05-18T00:39:18.544Z,95049.22
2023-05-18T00:41:45.642Z,95060.22
2023-05-18T00:44:12.737Z,95060.09
2023-05-18T00:46:39.647Z,95045.56
2023-05-18T00:49:06.759Z,95042.59
2023-05-18T00:51:34.664Z,95059.88
2023-05-18T00:54:03.740Z,95051.22
2023-05-18T00:56:34.439Z,95054.19
2023-05-18T00:59:03.525Z,95049.66
2023-05-18T01:01:36.673Z,95045.88
2023-05-18T01:04:04.921Z,95038.75
2023-05-18T01:06:33.029Z,95044.31
2023-05-18T01:09:07.215Z,95045.13
2023-05-18T01:11:41.335Z,95045.97
2023-05-18T01:14:34.620Z,95047.25
2023-05-18T01:18:01.023Z,95042.28
2023-05-18T01:20:57.721Z,95047.44
2023-05-18T01:23:47.454Z,95023.91
2023-05-18T01:26:18.198Z,95042.19
2023-05-18T01:28:46.762Z,95024.47
2023-05-18T01:31:16.464Z,95028.25
2023-05-18T01:33:44.932Z,95033.44
2023-05-18T01:36:11.802Z,95028.94
2023-05-18T01:38:41.643Z,95025.19
2023-05-18T01:41:27.914Z,95027.28
2023-05-18T01:44:24.974Z,95017.34
2023-05-18T01:47:17.386Z,95015.53
2023-05-18T01:50:06.817Z,95014.66
2023-05-18T01:52:41.202Z,95009.72
2023-05-18T01:55:10.326Z,95014.09
2023-05-18T01:57:39.723Z,95021.66
2023-05-18T02:00:09.970Z,95005.69
2023-05-18T02:02:37.029Z,95018.22
2023-05-18T02:05:05.759Z,95011.88
2023-05-18T02:07:32.602Z,95014.91
2023-05-18T02:09:59.465Z,94998.97
2023-05-18T02:12:26.345Z,94996.47
2023-05-18T02:14:53.241Z,95004.28
2023-05-18T02:17:20.235Z,95005.97
2023-05-18T02:19:47.068Z,94983.59
2023-05-18T02:22:14.420Z,94985.69
2023-05-18T02:24:41.262Z,94990.44
2023-05-18T02:27:08.177Z,94993.53
2023-05-18T02:29:35.091Z,94989.75
2023-05-18T02:32:01.992Z,94986.28
2023-05-18T02:34:32.224Z,94989.56
2023-05-18T02:37:04.230Z,94986.66
2023-05-18T02:39:31.647Z,94987.81
2023-05-18T02:41:58.562Z,94977.56
2023-05-18T02:44:25.557Z,94976.00
2023-05-18T02:46:52.416Z,94978.16
2023-05-18T02:49:19.298Z,94980.66
2023-05-18T02:51:46.164Z,94977.34
2023-05-18T02:54:13.072Z,94978.81
2023-05-18T02:56:41.728Z,94975.16
2023-05-18T02:59:08.993Z,94980.81
2023-05-18T03:01:37.900Z,94969.28
2023-05-18T03:04:04.874Z,94973.13
2023-05-18T03:06:31.763Z,94974.97
2023-05-18T03:08:59.260Z,94974.81
2023-05-18T03:11:29.200Z,94967.31
2023-05-18T03:13:56.125Z,94972.66
2023-05-18T03:16:28.469Z,94973.56
2023-05-18T03:18:56.048Z,94972.56
2023-05-18T03:21:23.417Z,94971.13
2023-05-18T03:23:51.187Z,94959.81
2023-05-18T03:26:18.747Z,94964.13
2023-05-18T03:28:45.925Z,94968.44
2023-05-18T03:31:12.861Z,94967.25
2023-05-18T03:33:39.752Z,94962.50
2023-05-18T03:36:07.168Z,94962.16
2023-05-18T03:38:34.115Z,94963.50
2023-05-18T03:41:01.042Z,94964.75
2023-05-18T03:43:29.723Z,94963.50
2023-05-18T03:45:56.802Z,94969.91
2023-05-18T03:48:24.936Z,94956.34
2023-05-18T03:50:51.835Z,94970.31
2023-05-18T03:53:19.500Z,94967.81
2023-05-18T03:55:49.471Z,94967.38
2023-05-18T03:58:16.562Z,94964.88
2023-05-18T04:00:43.415Z,94960.25
2023-05-18T04:03:14.855Z,94966.31
2023-05-18T04:05:46.193Z,94969.28
2023-05-18T04:08:16.105Z,94965.16
2023-05-18T04:10:43.802Z,94960.94
2023-05-18T04:13:11.121Z,94961.22
2023-05-18T04:15:38.676Z,94964.69
2023-05-18T04:18:05.793Z,94964.91
2023-05-18T04:20:32.773Z,94969.16
2023-05-18T04:22:59.623Z,94964.13
2023-05-18T04:25:29.580Z,94979.63
2023-05-18T04:27:57.554Z,94974.84
2023-05-18T04:30:29.770Z,94974.72
2023-05-18T04:32:58.490Z,94979.84
2023-05-18T04:35:26.914Z,94974.00
2023-05-18T04:37:54.766Z,94966.78
2023-05-18T04:40:21.731Z,94984.63
2023-05-18T04:42:49.066Z,94978.16
2023-05-18T04:45:23.089Z,94984.91
2023-05-18T04:47:54.332Z,94982.53
2023-05-18T04:50:26.206Z,94978.53
2023-05-18T04:52:54.081Z,94976.88
2023-05-18T04:55:26.511Z,94973.56
2023-05-18T04:57:57.623Z,94976.63
2023-05-18T05:00:26.555Z,94989.38
2023-05-18T05:02:54.024Z,94981.78
2023-05-18T05:05:22.362Z,94976.59
2023-05-18T05:07:53.682Z,94985.00
2023-05-18T05:10:21.801Z,94984.44
2023-05-18T05:12:51.146Z,94983.59
2023-05-18T05:15:18.952Z,94968.69
2023-05-18T05:17:49.846Z,94981.53
2023-05-18T05:20:17.681Z,94977.38
2023-05-18T05:22:44.640Z,94975.91
2023-05-18T05:25:11.947Z,94972.78
2023-05-18T05:27:38.849Z,94976.31
2023-05-18T05:30:06.860Z,94973.78
2023-05-18T05:32:33.857Z,94985.41
2023-05-18T05:35:00.898Z,94970.25
2023-05-18T05:37:28.158Z,94978.31
2023-05-18T05:39:55.043Z,94979.38
2023-05-18T05:42:22.195Z,94975.19
2023-05-18T05:44:49.082Z,94967.69
2023-05-18T05:47:16.539Z,94961.88
2023-05-18T05:49:43.416Z,94973.44
2023-05-18T05:52:10.273Z,94975.84
2023-05-18T05:54:37.165Z,94979.44
2023-05-18T05:57:04.295Z,94977.66
2023-05-18T05:59:31.362Z,94977.25
2023-05-18T06:01:58.519Z,94979.59
2023-05-18T06:04:25.594Z,94985.09
2023-05-18T06:06:52.542Z,94972.81
2023-05-18T06:09:19.433Z,94972.38
2023-05-18T06:11:46.358Z,94986.13
2023-05-18T06:14:13.373Z,94987.56
2023-05-18T06:16:40.351Z,94984.63
2023-05-18T06:19:07.384Z,94984.44
2023-05-18T06:21:34.459Z,94979.00
2023-05-18T06:24:01.662Z,94978.28
2023-05-18T06:26:28.632Z,94985.66
2023-05-18T06:28:55.594Z,94991.56
2023-05-18T06:31:22.731Z,94977.25
2023-05-18T06:33:49.711Z,94991.44
2023-05-18T06:36:17.189Z,94991.13
2023-05-18T06:38:44.095Z,94977.78
2023-05-18T06:41:11.128Z,94994.66
2023-05-18T06:43:37.992Z,94990.16
2023-05-18T06:46:04.955Z,94993.53
2023-05-18T06:48:31.956Z,94993.72
2023-05-18T06:50:58.848Z,94985.91
2023-05-18T06:53:26.563Z,94989.13
2023-05-18T06:55:53.480Z,94982.97
2023-05-18T06:58:21.048Z,94985.00
2023-05-18T07:00:48.727Z,94981.00
2023-05-18T07:03:15.682Z,94986.19
2023-05-18T07:05:42.726Z,94989.31
2023-05-18T07:08:09.898Z,94987.88
2023-05-18T07:10:37.723Z,94993.47
2023-05-18T07:13:04.600Z,94992.66
2023-05-18T07:15:31.733Z,94990.56
2023-05-18T07:17:58.944Z,94989.81
2023-05-18T07:20:26.596Z,95006.41
2023-05-18T07:22:55.412Z,95017.59
2023-05-18T07:25:23.506Z,94994.56
2023-05-18T07:27:54.806Z,94995.97
2023-05-18T07:30:22.976Z,94987.44
2023-05-18T07:32:51.253Z,94992.06
2023-05-18T07:35:22.238Z,94981.06
2023-05-18T07:37:52.303Z,94993.75
2023-05-18T07:40:19.371Z,94996.88
2023-05-18T07:42:46.936Z,94990.47
2023-05-18T07:45:14.080Z,94986.38
2023-05-18T07:47:41.075Z,94998.03
2023-05-18T07:50:08.724Z,94997.56
2023-05-18T07:52:35.797Z,94989.31
2023-05-18T07:55:03.074Z,95002.47
2023-05-18T07:57:31.180Z,95008.91
2023-05-18T07:59:58.036Z,95006.94
2023-05-18T08:02:25.094Z,94998.84
2023-05-18T08:04:52.241Z,95001.16
2023-05-18T08:07:19.152Z,95008.59
2023-05-18T08:09:46.049Z,95010.56
2023-05-18T08:12:12.956Z,95005.31
2023-05-18T08:14:39.807Z,95002.69
2023-05-18T08:17:06.819Z,94998.38
2023-05-18T08:19:33.729Z,95006.47
2023-05-18T08:22:00.586Z,95002.81
2023-05-18T08:24:27.476Z,95007.56
2023-05-18T08:26:54.392Z,94994.75
2023-05-18T08:29:21.465Z,94998.34
2023-05-18T08:31:49.684Z,95010.84
2023-05-18T08:34:16.815Z,94998.03
2023-05-18T08:36:45.924Z,95000.47
2023-05-18T08:39:13.398Z,94995.97
2023-05-18T08:41:56.685Z,94991.38
2023-05-18T08:44:26.838Z,94998.03
2023-05-18T08:46:56.186Z,94999.00
2023-05-18T08:49:25.303Z,95000.53
2023-05-18T08:51:57.901Z,95003.19
2023-05-18T08:54:25.169Z,95002.00
2023-05-18T08:56:53.504Z,94997.44
2023-05-18T08:59:25.408Z,95012.09
2023-05-18T09:01:55.350Z,94996.34
2023-05-18T09:04:22.846Z,94993.53
2023-05-18T09:06:51.416Z,95007.38
2023-05-18T09:09:18.991Z,94997.97
2023-05-18T09:11:47.618Z,95007.47
2023-05-18T09:14:14.782Z,95012.91
2023-05-18T09:16:41.703Z,95001.00
2023-05-18T09:19:08.726Z,94991.56
2023-05-18T09:21:39.341Z,95003.44
2023-05-18T09:24:06.729Z,94987.63
2023-05-18T09:26:33.733Z,94982.50
2023-05-18T09:29:00.715Z,95000.34
2023-05-18T09:31:27.991Z,94988.63
2023-05-18T09:33:55.373Z,94993.91
2023-05-18T09:36:26.713Z,94979.69
2023-05-18T09:38:53.786Z,94991.00
2023-05-18T09:41:20.711Z,94981.25
2023-05-18T09:43:51.587Z,94994.13
2023-05-18T09:46:21.284Z,94992.47
2023-05-18T09:48:53.290Z,94988.44
2023-05-18T09:51:22.047Z,94989.44
2023-05-18T09:53:59.336Z,94982.06
2023-05-18T09:56:27.335Z,94977.69
2023-05-18T09:58:54.549Z,94987.56
2023-05-18T10:01:21.928Z,94979.72
2023-05-18T10:03:50.078Z,94966.47
2023-05-18T10:06:21.397Z,94967.88
2023-05-18T10:08:48.719Z,94982.06
2023-05-18T10:11:20.097Z,94984.91
2023-05-18T10:13:47.429Z,94981.56
2023-05-18T10:16:15.898Z,94984.00
2023-05-18T10:18:43.291Z,94985.34
2023-05-18T10:21:12.766Z,94980.78
2023-05-18T10:23:41.755Z,94963.25
2023-05-18T10:26:10.294Z,94963.09
2023-05-18T10:28:47.601Z,94958.50
2023-05-18T10:31:16.949Z,94972.63
2023-05-18T10:33:44.835Z,94965.84
2023-05-18T10:36:12.131Z,94970.78
2023-05-18T10:38:43.705Z,94959.47
2023-05-18T10:41:12.714Z,94977.41
2023-05-18T10:43:43.082Z,94973.41
2023-05-18T10:46:10.249Z,94964.41
2023-05-18T10:48:41.121Z,94953.53
2023-05-18T10:51:09.004Z,94975.97
2023-05-18T10:53:37.007Z,94967.84
2023-05-18T10:56:04.098Z,94971.25
2023-05-18T10:58:32.087Z,94981.16
2023-05-18T11:01:02.009Z,94970.56
2023-05-18T11:03:29.388Z,94970.41
2023-05-18T11:06:15.041Z,94976.22
2023-05-18T11:08:50.881Z,94977.28
2023-05-18T11:11:19.489Z,94981.91
2023-05-18T11:13:51.556Z,94989.22
2023-05-18T11:16:20.956Z,94988.06
2023-05-18T11:18:50.813Z,94972.09
2023-05-18T11:21:36.200Z,94968.13
2023-05-18T11:24:24.182Z,94980.63
2023-05-18T11:27:15.325Z,94973.81
2023-05-18T11:29:57.732Z,94973.91
2023-05-18T11:32:37.300Z,94974.25
2023-05-18T11:35:08.935Z,94965.78
2023-05-18T11:37:38.661Z,94990.66
2023-05-18T11:40:11.452Z,94974.38
2023-05-18T11:42:38.528Z,94974.53
2023-05-18T11:45:13.075Z,94973.25
2023-05-18T11:47:41.469Z,94969.44
2023-05-18T11:50:12.104Z,94974.94
2023-05-18T11:52:53.418Z,94983.47
2023-05-18T11:55:21.382Z,94985.84
2023-05-18T11:57:52.917Z,94979.38
2023-05-18T12:00:21.229Z,94984.94
2023-05-18T12:02:49.602Z,94974.78
2023-05-18T12:05:17.555Z,94985.00
2023-05-18T12:07:45.158Z,94977.69
2023-05-18T12:10:17.410Z,94986.41
2023-05-18T12:12:48.104Z,94983.75
2023-05-18T12:15:16.990Z,94989.16
2023-05-18T12:17:47.268Z,94978.00
2023-05-18T12:20:17.487Z,94976.03
2023-05-18T12:22:50.460Z,94984.66
2023-05-18T12:25:17.426Z,94974.69
2023-05-18T12:27:48.009Z,94976.00
2023-05-18T12:30:20.011Z,94986.53
2023-05-18T12:32:56.659Z,94979.59
2023-05-18T12:35:29.305Z,94978.78
2023-05-18T12:38:01.793Z,94973.84
2023-05-18T12:40:42.899Z,94973.53
2023-05-18T12:43:09.837Z,94976.66
2023-05-18T12:45:36.714Z,94971.63
2023-05-18T12:48:12.249Z,94977.16
2023-05-18T12:50:51.018Z,94986.72
2023-05-18T12:53:18.926Z,94985.16
2023-05-18T12:55:45.844Z,94974.97
2023-05-18T12:58:20.018Z,94983.34
2023-05-18T13:00:48.748Z,94970.09
2023-05-18T13:03:20.515Z,94981.44
2023-05-18T13:06:09.849Z,94985.81
2023-05-18T13:08:37.445Z,94973.47
2023-05-18T13:11:14.213Z,94972.16
2023-05-18T13:14:05.085Z,94983.78
2023-05-18T13:16:35.081Z,94984.88
2023-05-18T13:19:05.743Z,94980.41
2023-05-18T13:21:34.587Z,94980.06
2023-05-18T13:24:03.387Z,94986.25
2023-05-18T13:26:31.306Z,94984.44
2023-05-18T13:28:58.743Z,94985.25
2023-05-18T13:31:25.691Z,94970.94
2023-05-18T13:33:52.983Z,94967.50
2023-05-18T13:36:19.854Z,94968.47
2023-05-18T13:38:46.853Z,94971.94
2023-05-18T13:41:16.848Z,94973.50
2023-05-18T13:43:43.835Z,94976.69
2023-05-18T13:46:10.745Z,94986.81
2023-05-18T13:48:37.857Z,94987.72
2023-05-18T13:51:04.866Z,94970.53
2023-05-18T13:53:31.832Z,94979.25
2023-05-18T13:55:58.850Z,94982.06
2023-05-18T13:58:25.843Z,94988.41
2023-05-18T14:00:54.648Z,94981.03
2023-05-18T14:03:21.895Z,94981.72
2023-05-18T14:05:49.007Z,94983.97
2023-05-18T14:08:15.974Z,94967.75
2023-05-18T14:10:42.906Z,94958.56
2023-05-18T14:13:09.839Z,94971.56
2023-05-18T14:15:36.829Z,94969.69
2023-05-18T14:18:04.206Z,94974.69
2023-05-18T14:20:31.463Z,94963.00
2023-05-18T14:22:58.822Z,94973.41
2023-05-18T14:25:26.344Z,94980.91
2023-05-18T14:27:53.297Z,94971.22
2023-05-18T14:30:20.260Z,94977.22
2023-05-18T14:32:47.174Z,94976.94
2023-05-18T14:35:14.104Z,94970.75
2023-05-18T14:37:40.977Z,94972.03
2023-05-18T14:40:08.926Z,94967.84
2023-05-18T14:42:37.270Z,94961.84
2023-05-18T14:45:05.126Z,94968.66
2023-05-18T14:47:32.056Z,94964.47
2023-05-18T14:49:58.952Z,94960.09
2023-05-18T14:52:26.372Z,94955.81
2023-05-18T14:54:53.252Z,94959.44
2023-05-18T14:57:20.194Z,94950.41
2023-05-18T14:59:47.045Z,94952.22
2023-05-18T15:02:14.088Z,94953.41
2023-05-18T15:04:41.110Z,94935.03
2023-05-18T15:07:08.289Z,94953.78
2023-05-18T15:09:35.137Z,94956.88
2023-05-18T15:12:02.055Z,94947.66
2023-05-18T15:14:29.024Z,94948.84
2023-05-18T15:16:55.959Z,94968.75
2023-05-18T15:19:22.899Z,94951.88
2023-05-18T15:21:50.055Z,94958.69
2023-05-18T15:24:16.909Z,94956.06
2023-05-18T15:26:43.924Z,94963.75
2023-05-18T15:29:10.935Z,94955.34
2023-05-18T15:31:39.926Z,94962.19
2023-05-18T15:34:06.936Z,94958.91
2023-05-18T15:36:34.243Z,94962.28
2023-05-18T15:39:04.636Z,94961.84
2023-05-18T15:41:34.460Z,94955.63
2023-05-18T15:44:02.161Z,94951.25
2023-05-18T15:46:35.211Z,94954.78
2023-05-18T15:49:02.694Z,94943.94
2023-05-18T15:51:29.911Z,94948.97
2023-05-18T15:53:56.850Z,94956.25
2023-05-18T15:56:23.787Z,94940.91
2023-05-18T15:58:50.759Z,94929.69
2023-05-18T16:01:17.678Z,94950.44
2023-05-18T16:03:44.932Z,94942.28
2023-05-18T16:06:12.107Z,94938.03
2023-05-18T16:08:39.050Z,94942.69
2023-05-18T16:11:07.224Z,94925.97
2023-05-18T16:13:34.218Z,94931.38
2023-05-18T16:16:01.206Z,94932.72
2023-05-18T16:18:28.130Z,94934.47
2023-05-18T16:20:55.016Z,94935.28
2023-05-18T16:23:21.870Z,94926.44
2023-05-18T16:25:48.781Z,94922.16
2023-05-18T16:28:15.644Z,94927.53
2023-05-18T16:30:42.483Z,94930.25
2023-05-18T16:33:09.408Z,94931.38
2023-05-18T16:35:36.396Z,94944.22
2023-05-18T16:38:03.257Z,94931.63
2023-05-18T16:40:30.657Z,94935.72
2023-05-18T16:42:57.887Z,94938.38
2023-05-18T16:45:27.022Z,94942.56
2023-05-18T16:47:54.132Z,94944.47
2023-05-18T16:50:21.304Z,94941.53
2023-05-18T16:52:48.237Z,94947.28
2023-05-18T16:55:15.177Z,94928.88
2023-05-18T16:57:43.591Z,94940.00
2023-05-18T17:00:11.628Z,94929.91
2023-05-18T17:02:39.291Z,94932.06
2023-05-18T17:05:08.633Z,94936.72
2023-05-18T17:07:36.581Z,94934.38
2023-05-18T17:10:05.317Z,94936.94
2023-05-18T17:12:32.599Z,94935.38
2023-05-18T17:14:59.708Z,94941.94
2023-05-18T17:17:26.711Z,94935.09
2023-05-18T17:19:53.854Z,94945.75
2023-05-18T17:22:20.740Z,94945.84
2023-05-18T17:24:47.594Z,94945.09
2023-05-18T17:27:14.522Z,94943.13
2023-05-18T17:29:41.901Z,94953.31
2023-05-18T17:32:08.774Z,94949.47
2023-05-18T17:34:35.759Z,94949.47
2023-05-18T17:37:02.657Z,94953.78
2023-05-18T17:39:29.510Z,94945.22
2023-05-18T17:41:56.610Z,94944.66
2023-05-18T17:44:23.588Z,94961.41
2023-05-18T17:46:51.114Z,94953.56
2023-05-18T17:49:18.396Z,94949.47
2023-05-18T17:51:45.918Z,94954.84
2023-05-18T17:54:12.777Z,94959.56
2023-05-18T17:56:39.753Z,94957.22
2023-05-18T17:59:07.120Z,94962.59
2023-05-18T18:01:35.187Z,94963.47
2023-05-18T18:04:02.312Z,94961.81
2023-05-18T18:06:29.358Z,94965.56
2023-05-18T18:08:58.632Z,94958.00
2023-05-18T18:11:26.965Z,94967.00
2023-05-18T18:13:54.659Z,94962.84
2023-05-18T18:16:22.473Z,94959.56
2023-05-18T18:18:49.615Z,94961.22
2023-05-18T18:21:16.530Z,94962.16
2023-05-18T18:23:43.410Z,94964.81
2023-05-18T18:26:10.363Z,94967.34
2023-05-18T18:28:37.305Z,94966.97
2023-05-18T18:31:04.624Z,94965.69
2023-05-18T18:33:32.985Z,94967.44
2023-05-18T18:36:00.113Z,94966.75
2023-05-18T18:38:30.053Z,94974.75
2023-05-18T18:41:01.735Z,94968.22
2023-05-18T18:43:29.125Z,94977.06
2023-05-18T18:45:57.433Z,94969.84
2023-05-18T18:48:25.230Z,94968.50
2023-05-18T18:50:52.756Z,94969.91
2023-05-18T18:53:19.643Z,94972.25
2023-05-18T18:55:46.526Z,94972.78
2023-05-18T18:58:13.673Z,94964.78
2023-05-18T19:00:40.542Z,94959.00
2023-05-18T19:03:07.531Z,94964.28
2023-05-18T19:05:34.665Z,94959.50
2023-05-18T19:08:02.041Z,94963.69
2023-05-18T19:10:29.007Z,94977.19
2023-05-18T19:12:59.502Z,94978.19
2023-05-18T19:15:26.583Z,94978.88
2023-05-18T19:17:54.258Z,94985.47
2023-05-18T19:20:21.890Z,94996.03
2023-05-18T19:22:48.905Z,94991.16
2023-05-18T19:25:16.045Z,94994.13
2023-05-18T19:27:42.912Z,95001.41
2023-05-18T19:30:11.512Z,94998.47
2023-05-18T19:32:38.529Z,95008.03
2023-05-18T19:35:05.575Z,94998.47
2023-05-18T19:37:32.445Z,95004.09
2023-05-18T19:39:59.355Z,95004.09
2023-05-18T19:42:26.410Z,94992.56
2023-05-18T19:44:53.266Z,95012.84
2023-05-18T19:47:20.146Z,95009.56
2023-05-18T19:49:47.070Z,95015.66
2023-05-18T19:52:13.967Z,95013.25
2023-05-18T19:54:40.935Z,95024.59
2023-05-18T19:57:07.802Z,95023.63
2023-05-18T19:59:34.736Z,95038.09
2023-05-18T20:02:04.942Z,95016.19
2023-05-18T20:04:33.759Z,95027.75
2023-05-18T20:07:01.419Z,95026.91
2023-05-18T20:09:29.256Z,95024.47
2023-05-18T20:11:56.774Z,95025.44
2023-05-18T20:14:23.957Z,95022.97
2023-05-18T20:16:52.689Z,95024.97
2023-05-18T20:19:19.848Z,95019.41
2023-05-18T20:21:50.120Z,95029.31
2023-05-18T20:24:17.014Z,95008.84
2023-05-18T20:26:43.963Z,95017.41
2023-05-18T20:29:11.049Z,95026.31
2023-05-18T20:31:38.113Z,95021.38
2023-05-18T20:34:06.529Z,95019.22
2023-05-18T20:36:33.415Z,95020.19
2023-05-18T20:39:00.413Z,95023.34
2023-05-18T20:41:28.462Z,95023.19
2023-05-18T20:43:55.387Z,95017.59
2023-05-18T20:46:25.070Z,95023.16
2023-05-18T20:48:57.700Z,95026.47
2023-05-18T20:51:24.886Z,95022.03
2023-05-18T20:53:52.086Z,95019.06
2023-05-18T20:56:19.028Z,95017.44
2023-05-18T20:58:50.263Z,95012.50
2023-05-18T21:01:18.781Z,95026.34
2023-05-18T21:03:46.049Z,95019.09
2023-05-18T21:06:14.177Z,95021.56
2023-05-18T21:08:41.568Z,95016.28
2023-05-18T21:11:08.433Z,95011.03
2023-05-18T21:13:37.241Z,95025.03
2023-05-18T21:16:06.873Z,95016.75
2023-05-18T21:18:34.761Z,95016.75
2023-05-18T21:21:04.958Z,95014.16
2023-05-18T21:23:32.093Z,95011.38
2023-05-18T21:25:58.977Z,95007.09
2023-05-18T21:28:25.850Z,95007.91
2023-05-18T21:30:53.139Z,94998.03
2023-05-18T21:33:21.293Z,94994.75
2023-05-18T21:35:48.256Z,95008.22
2023-05-18T21:38:15.095Z,95003.97
2023-05-18T21:40:43.699Z,95004.44
2023-05-18T21:43:11.054Z,95000.84
2023-05-18T21:45:38.767Z,94993.09
2023-05-18T21:48:06.293Z,94999.66
2023-05-18T21:50:35.344Z,95000.84
2023-05-18T21:53:03.535Z,95000.31
2023-05-18T21:55:33.965Z,94998.69
2023-05-18T21:58:01.078Z,94992.09
2023-05-18T22:00:28.739Z,94983.03
2023-05-18T22:02:55.828Z,94991.75
2023-05-18T22:05:22.771Z,94988.81
2023-05-18T22:07:49.814Z,94983.84
2023-05-18T22:10:18.314Z,94984.84
2023-05-18T22:12:45.520Z,94988.13
2023-05-18T22:15:12.881Z,94986.16
2023-05-18T22:17:40.565Z,94976.91
2023-05-18T22:20:11.814Z,94987.31
2023-05-18T22:22:40.502Z,94980.53
2023-05-18T22:25:08.086Z,94987.81
2023-05-18T22:27:36.862Z,94976.91
2023-05-18T22:30:08.204Z,94977.78
2023-05-18T22:32:35.226Z,94978.75
2023-05-18T22:35:03.083Z,94979.56
2023-05-18T22:37:29.942Z,94977.28
2023-05-18T22:39:56.835Z,94973.50
2023-05-18T22:42:23.689Z,94967.72
2023-05-18T22:44:51.454Z,94971.66
2023-05-18T22:47:21.574Z,94966.75
2023-05-18T22:49:49.345Z,94972.31
2023-05-18T22:52:18.665Z,94964.78
2023-05-18T22:54:45.986Z,94981.56
2023-05-18T22:57:13.306Z,94973.34
2023-05-18T22:59:40.199Z,94962.31
2023-05-18T23:02:07.301Z,94967.22
2023-05-18T23:04:35.134Z,94958.34
2023-05-18T23:07:04.254Z,94962.81
2023-05-18T23:09:31.269Z,94961.50
2023-05-18T23:11:59.759Z,94957.72
2023-05-18T23:14:32.618Z,94954.25
2023-05-18T23:17:00.762Z,94953.13
2023-05-18T23:19:28.041Z,94959.19
2023-05-18T23:21:55.799Z,94955.25
2023-05-18T23:24:22.780Z,94955.09
2023-05-18T23:26:49.649Z,94951.97
2023-05-18T23:29:16.845Z,94953.78
2023-05-18T23:31:43.753Z,94954.44
2023-05-18T23:34:11.089Z,94949.97
2023-05-18T23:36:39.871Z,94950.97
2023-05-18T23:39:07.387Z,94959.69
2023-05-18T23:41:36.281Z,94952.63
2023-05-18T23:44:03.693Z,94954.28
2023-05-18T23:46:32.044Z,94951.34
2023-05-18T23:49:00.013Z,94939.47
2023-05-18T23:51:32.182Z,94947.69
2023-05-18T23:53:59.510Z,94945.41
2023-05-18T23:56:26.789Z,94942.44
2023-05-18T23:58:53.975Z,94952.63
